sensor_id;sensor_type;location;lat;lon;timestamp;P1;durP1;ratioP1;P2;durP2;ratioP2
55316;SDS011;41178;48.956;8.130;2022-10-12T00:01:43;10.53;;;3.77;;
55316;SDS011;41178;48.956;8.130;2022-10-12T00:03:45;5.23;;;3.60;;
55316;SDS011;41178;48.956;8.130;2022-10-12T00:05:47;6.87;;;3.40;;
55316;SDS011;41178;48.956;8.130;2022-10-12T00:07:59;12.33;;;3.83;;
55316;SDS011;41178;48.956;8.130;2022-10-12T00:10:01;6.53;;;3.17;;
55316;SDS011;41178;48.956;8.130;2022-10-12T00:12:03;7.80;;;3.73;;
55316;SDS011;41178;48.956;8.130;2022-10-12T00:14:04;7.67;;;3.37;;
55316;SDS011;41178;48.956;8.130;2022-10-12T00:16:07;9.17;;;3.87;;
55316;SDS011;41178;48.956;8.130;2022-10-12T00:18:10;9.43;;;3.43;;
55316;SDS011;41178;48.956;8.130;2022-10-12T00:20:11;8.33;;;3.90;;
55316;SDS011;41178;48.956;8.130;2022-10-12T00:22:13;10.10;;;3.57;;
55316;SDS011;41178;48.956;8.130;2022-10-12T00:24:14;11.03;;;3.50;;
55316;SDS011;41178;48.956;8.130;2022-10-12T00:26:17;10.60;;;3.60;;
55316;SDS011;41178;48.956;8.130;2022-10-12T00:28:21;6.43;;;4.00;;
55316;SDS011;41178;48.956;8.130;2022-10-12T00:30:23;9.87;;;3.60;;
55316;SDS011;41178;48.956;8.130;2022-10-12T00:32:24;8.53;;;3.87;;
55316;SDS011;41178;48.956;8.130;2022-10-12T00:34:26;8.23;;;3.70;;
55316;SDS011;41178;48.956;8.130;2022-10-12T00:36:29;6.87;;;3.27;;
55316;SDS011;41178;48.956;8.130;2022-10-12T00:38:34;7.83;;;3.43;;
55316;SDS011;41178;48.956;8.130;2022-10-12T00:40:35;9.80;;;3.00;;
55316;SDS011;41178;48.956;8.130;2022-10-12T00:42:37;6.67;;;3.57;;
55316;SDS011;41178;48.956;8.130;2022-10-12T00:44:40;10.13;;;3.40;;
55316;SDS011;41178;48.956;8.130;2022-10-12T00:46:44;8.10;;;3.50;;
55316;SDS011;41178;48.956;8.130;2022-10-12T00:48:48;13.13;;;3.80;;
55316;SDS011;41178;48.956;8.130;2022-10-12T00:50:54;9.60;;;3.83;;
55316;SDS011;41178;48.956;8.130;2022-10-12T00:55:06;6.03;;;3.10;;
55316;SDS011;41178;48.956;8.130;2022-10-12T00:57:10;9.93;;;3.57;;
55316;SDS011;41178;48.956;8.130;2022-10-12T00:59:18;8.87;;;3.80;;
55316;SDS011;41178;48.956;8.130;2022-10-12T01:01:26;9.97;;;3.20;;
55316;SDS011;41178;48.956;8.130;2022-10-12T01:03:29;9.77;;;3.53;;
55316;SDS011;41178;48.956;8.130;2022-10-12T01:05:32;6.80;;;3.47;;
55316;SDS011;41178;48.956;8.130;2022-10-12T01:07:34;9.57;;;3.67;;
55316;SDS011;41178;48.956;8.130;2022-10-12T01:09:36;7.63;;;3.63;;
55316;SDS011;41178;48.956;8.130;2022-10-12T01:11:38;9.57;;;3.87;;
55316;SDS011;41178;48.956;8.130;2022-10-12T01:13:39;7.93;;;3.07;;
55316;SDS011;41178;48.956;8.130;2022-10-12T01:15:43;11.27;;;3.43;;
55316;SDS011;41178;48.956;8.130;2022-10-12T01:17:58;9.73;;;3.50;;
55316;SDS011;41178;48.956;8.130;2022-10-12T01:20:13;9.07;;;3.87;;
55316;SDS011;41178;48.956;8.130;2022-10-12T01:22:21;8.63;;;3.60;;
55316;SDS011;41178;48.956;8.130;2022-10-12T01:30:04;6.90;;;3.40;;
55316;SDS011;41178;48.956;8.130;2022-10-12T01:32:12;11.27;;;4.00;;
55316;SDS011;41178;48.956;8.130;2022-10-12T01:34:31;8.73;;;3.77;;
55316;SDS011;41178;48.956;8.130;2022-10-12T01:36:53;9.17;;;3.70;;
55316;SDS011;41178;48.956;8.130;2022-10-12T01:43:21;6.30;;;3.47;;
55316;SDS011;41178;48.956;8.130;2022-10-12T01:45:23;7.77;;;3.90;;
55316;SDS011;41178;48.956;8.130;2022-10-12T01:47:25;9.37;;;4.13;;
55316;SDS011;41178;48.956;8.130;2022-10-12T01:49:28;5.70;;;3.37;;
55316;SDS011;41178;48.956;8.130;2022-10-12T01:54:10;9.83;;;3.70;;
55316;SDS011;41178;48.956;8.130;2022-10-12T01:56:36;15.00;;;4.27;;
55316;SDS011;41178;48.956;8.130;2022-10-12T02:03:35;10.10;;;3.93;;
55316;SDS011;41178;48.956;8.130;2022-10-12T02:08:27;10.83;;;4.40;;
55316;SDS011;41178;48.956;8.130;2022-10-12T02:10:37;7.10;;;3.70;;
55316;SDS011;41178;48.956;8.130;2022-10-12T02:12:42;7.73;;;4.33;;
55316;SDS011;41178;48.956;8.130;2022-10-12T02:14:49;10.03;;;4.20;;
55316;SDS011;41178;48.956;8.130;2022-10-12T02:16:55;10.20;;;4.07;;
55316;SDS011;41178;48.956;8.130;2022-10-12T02:19:04;8.17;;;3.70;;
55316;SDS011;41178;48.956;8.130;2022-10-12T02:21:11;9.13;;;3.43;;
55316;SDS011;41178;48.956;8.130;2022-10-12T02:23:16;7.87;;;4.07;;
55316;SDS011;41178;48.956;8.130;2022-10-12T02:25:20;6.67;;;3.50;;
55316;SDS011;41178;48.956;8.130;2022-10-12T02:27:26;11.10;;;4.43;;
55316;SDS011;41178;48.956;8.130;2022-10-12T02:29:30;10.70;;;4.30;;
55316;SDS011;41178;48.956;8.130;2022-10-12T02:31:38;6.70;;;3.77;;
55316;SDS011;41178;48.956;8.130;2022-10-12T02:33:55;9.13;;;3.90;;
55316;SDS011;41178;48.956;8.130;2022-10-12T02:36:05;9.80;;;3.53;;
55316;SDS011;41178;48.956;8.130;2022-10-12T02:38:24;8.10;;;3.67;;
55316;SDS011;41178;48.956;8.130;2022-10-12T02:40:43;10.53;;;3.47;;
55316;SDS011;41178;48.956;8.130;2022-10-12T02:42:49;8.30;;;4.00;;
55316;SDS011;41178;48.956;8.130;2022-10-12T02:45:11;7.00;;;3.80;;
55316;SDS011;41178;48.956;8.130;2022-10-12T02:47:15;6.37;;;3.57;;
55316;SDS011;41178;48.956;8.130;2022-10-12T02:49:18;8.17;;;3.67;;
55316;SDS011;41178;48.956;8.130;2022-10-12T02:51:21;8.80;;;3.80;;
55316;SDS011;41178;48.956;8.130;2022-10-12T02:53:24;9.07;;;3.60;;
55316;SDS011;41178;48.956;8.130;2022-10-12T02:55:28;12.27;;;4.00;;
55316;SDS011;41178;48.956;8.130;2022-10-12T02:57:31;12.20;;;5.20;;
55316;SDS011;41178;48.956;8.130;2022-10-12T02:59:32;9.80;;;3.57;;
55316;SDS011;41178;48.956;8.130;2022-10-12T03:01:34;9.17;;;3.70;;
55316;SDS011;41178;48.956;8.130;2022-10-12T03:03:35;10.73;;;3.53;;
55316;SDS011;41178;48.956;8.130;2022-10-12T03:05:37;8.33;;;4.23;;
55316;SDS011;41178;48.956;8.130;2022-10-12T03:07:39;8.17;;;3.50;;
55316;SDS011;41178;48.956;8.130;2022-10-12T03:09:41;7.13;;;3.63;;
55316;SDS011;41178;48.956;8.130;2022-10-12T03:11:42;8.20;;;4.10;;
55316;SDS011;41178;48.956;8.130;2022-10-12T03:13:44;12.27;;;4.23;;
55316;SDS011;41178;48.956;8.130;2022-10-12T03:15:46;6.90;;;3.87;;
55316;SDS011;41178;48.956;8.130;2022-10-12T03:17:48;6.97;;;3.60;;
55316;SDS011;41178;48.956;8.130;2022-10-12T03:19:49;10.10;;;3.63;;
55316;SDS011;41178;48.956;8.130;2022-10-12T03:21:51;7.67;;;3.40;;
55316;SDS011;41178;48.956;8.130;2022-10-12T03:23:52;8.60;;;3.63;;
55316;SDS011;41178;48.956;8.130;2022-10-12T03:25:54;13.40;;;4.33;;
55316;SDS011;41178;48.956;8.130;2022-10-12T03:27:56;8.77;;;3.80;;
55316;SDS011;41178;48.956;8.130;2022-10-12T03:29:57;11.23;;;4.13;;
55316;SDS011;41178;48.956;8.130;2022-10-12T03:31:59;7.73;;;3.97;;
55316;SDS011;41178;48.956;8.130;2022-10-12T03:34:00;9.00;;;4.10;;
55316;SDS011;41178;48.956;8.130;2022-10-12T03:36:02;6.43;;;3.30;;
55316;SDS011;41178;48.956;8.130;2022-10-12T03:38:04;9.13;;;3.80;;
55316;SDS011;41178;48.956;8.130;2022-10-12T03:40:06;7.87;;;4.17;;
55316;SDS011;41178;48.956;8.130;2022-10-12T03:42:08;10.47;;;4.20;;
55316;SDS011;41178;48.956;8.130;2022-10-12T03:44:10;9.47;;;4.33;;
55316;SDS011;41178;48.956;8.130;2022-10-12T03:46:12;10.27;;;3.90;;
55316;SDS011;41178;48.956;8.130;2022-10-12T03:48:14;8.03;;;3.67;;
55316;SDS011;41178;48.956;8.130;2022-10-12T03:50:16;12.23;;;4.17;;
55316;SDS011;41178;48.956;8.130;2022-10-12T03:52:18;12.37;;;4.53;;
55316;SDS011;41178;48.956;8.130;2022-10-12T03:54:19;11.57;;;4.60;;
55316;SDS011;41178;48.956;8.130;2022-10-12T03:56:21;8.10;;;3.53;;
55316;SDS011;41178;48.956;8.130;2022-10-12T03:58:22;8.17;;;4.13;;
55316;SDS011;41178;48.956;8.130;2022-10-12T04:00:24;10.60;;;4.20;;
55316;SDS011;41178;48.956;8.130;2022-10-12T04:02:26;11.57;;;3.40;;
55316;SDS011;41178;48.956;8.130;2022-10-12T04:04:28;9.10;;;3.70;;
55316;SDS011;41178;48.956;8.130;2022-10-12T04:06:29;12.13;;;4.00;;
55316;SDS011;41178;48.956;8.130;2022-10-12T04:08:31;7.47;;;3.80;;
55316;SDS011;41178;48.956;8.130;2022-10-12T04:10:32;14.43;;;4.80;;
55316;SDS011;41178;48.956;8.130;2022-10-12T04:12:34;8.17;;;4.20;;
55316;SDS011;41178;48.956;8.130;2022-10-12T04:14:36;8.60;;;3.50;;
55316;SDS011;41178;48.956;8.130;2022-10-12T04:16:37;5.23;;;3.50;;
55316;SDS011;41178;48.956;8.130;2022-10-12T04:18:39;8.40;;;4.20;;
55316;SDS011;41178;48.956;8.130;2022-10-12T04:20:40;6.20;;;3.67;;
55316;SDS011;41178;48.956;8.130;2022-10-12T04:22:42;10.63;;;3.90;;
55316;SDS011;41178;48.956;8.130;2022-10-12T04:24:43;9.23;;;4.13;;
55316;SDS011;41178;48.956;8.130;2022-10-12T04:26:45;5.87;;;3.40;;
55316;SDS011;41178;48.956;8.130;2022-10-12T04:28:46;11.50;;;4.00;;
55316;SDS011;41178;48.956;8.130;2022-10-12T04:30:48;7.17;;;3.60;;
55316;SDS011;41178;48.956;8.130;2022-10-12T04:32:50;9.57;;;3.50;;
55316;SDS011;41178;48.956;8.130;2022-10-12T04:34:52;7.70;;;4.00;;
55316;SDS011;41178;48.956;8.130;2022-10-12T04:36:54;9.67;;;4.00;;
55316;SDS011;41178;48.956;8.130;2022-10-12T04:38:55;10.40;;;3.63;;
55316;SDS011;41178;48.956;8.130;2022-10-12T04:41:01;7.57;;;3.90;;
55316;SDS011;41178;48.956;8.130;2022-10-12T04:43:03;9.03;;;3.90;;
55316;SDS011;41178;48.956;8.130;2022-10-12T04:45:04;7.57;;;3.47;;
55316;SDS011;41178;48.956;8.130;2022-10-12T04:47:06;7.43;;;4.17;;
55316;SDS011;41178;48.956;8.130;2022-10-12T04:49:09;7.57;;;3.20;;
55316;SDS011;41178;48.956;8.130;2022-10-12T04:51:10;6.33;;;3.60;;
55316;SDS011;41178;48.956;8.130;2022-10-12T04:53:12;7.73;;;3.90;;
55316;SDS011;41178;48.956;8.130;2022-10-12T04:55:13;8.93;;;3.97;;
55316;SDS011;41178;48.956;8.130;2022-10-12T04:57:15;8.57;;;4.03;;
55316;SDS011;41178;48.956;8.130;2022-10-12T04:59:17;6.73;;;3.60;;
55316;SDS011;41178;48.956;8.130;2022-10-12T05:01:18;8.83;;;4.00;;
55316;SDS011;41178;48.956;8.130;2022-10-12T05:03:20;7.23;;;3.23;;
55316;SDS011;41178;48.956;8.130;2022-10-12T05:05:22;6.03;;;3.17;;
55316;SDS011;41178;48.956;8.130;2022-10-12T05:07:23;6.33;;;3.53;;
55316;SDS011;41178;48.956;8.130;2022-10-12T05:09:25;11.67;;;4.13;;
55316;SDS011;41178;48.956;8.130;2022-10-12T05:11:26;7.90;;;4.17;;
55316;SDS011;41178;48.956;8.130;2022-10-12T05:13:28;9.50;;;3.43;;
55316;SDS011;41178;48.956;8.130;2022-10-12T05:15:30;7.47;;;3.33;;
55316;SDS011;41178;48.956;8.130;2022-10-12T05:17:31;9.23;;;3.83;;
55316;SDS011;41178;48.956;8.130;2022-10-12T05:19:33;8.93;;;4.00;;
55316;SDS011;41178;48.956;8.130;2022-10-12T05:21:34;8.70;;;3.80;;
55316;SDS011;41178;48.956;8.130;2022-10-12T05:23:36;8.87;;;3.87;;
55316;SDS011;41178;48.956;8.130;2022-10-12T05:25:37;11.43;;;3.40;;
55316;SDS011;41178;48.956;8.130;2022-10-12T05:27:39;8.57;;;3.53;;
55316;SDS011;41178;48.956;8.130;2022-10-12T05:29:41;6.27;;;3.73;;
55316;SDS011;41178;48.956;8.130;2022-10-12T05:31:43;7.63;;;4.00;;
55316;SDS011;41178;48.956;8.130;2022-10-12T05:33:44;7.43;;;3.93;;
55316;SDS011;41178;48.956;8.130;2022-10-12T05:35:46;11.53;;;3.77;;
55316;SDS011;41178;48.956;8.130;2022-10-12T05:37:54;5.87;;;3.30;;
55316;SDS011;41178;48.956;8.130;2022-10-12T05:39:56;9.90;;;3.20;;
55316;SDS011;41178;48.956;8.130;2022-10-12T05:41:57;6.17;;;3.43;;
55316;SDS011;41178;48.956;8.130;2022-10-12T05:43:59;7.00;;;3.40;;
55316;SDS011;41178;48.956;8.130;2022-10-12T05:46:01;11.37;;;3.77;;
55316;SDS011;41178;48.956;8.130;2022-10-12T05:48:02;5.37;;;3.50;;
55316;SDS011;41178;48.956;8.130;2022-10-12T05:50:04;8.20;;;3.67;;
55316;SDS011;41178;48.956;8.130;2022-10-12T05:52:06;14.17;;;3.63;;
55316;SDS011;41178;48.956;8.130;2022-10-12T05:54:08;8.47;;;3.40;;
55316;SDS011;41178;48.956;8.130;2022-10-12T05:56:09;7.87;;;3.33;;
55316;SDS011;41178;48.956;8.130;2022-10-12T05:58:11;8.50;;;3.43;;
55316;SDS011;41178;48.956;8.130;2022-10-12T06:00:13;14.03;;;4.43;;
55316;SDS011;41178;48.956;8.130;2022-10-12T06:02:15;5.67;;;3.27;;
55316;SDS011;41178;48.956;8.130;2022-10-12T06:04:17;8.47;;;3.37;;
55316;SDS011;41178;48.956;8.130;2022-10-12T06:06:20;10.03;;;3.47;;
55316;SDS011;41178;48.956;8.130;2022-10-12T06:08:22;10.37;;;3.43;;
55316;SDS011;41178;48.956;8.130;2022-10-12T06:10:23;9.83;;;3.93;;
55316;SDS011;41178;48.956;8.130;2022-10-12T06:12:30;7.10;;;3.70;;
55316;SDS011;41178;48.956;8.130;2022-10-12T06:14:31;9.67;;;3.90;;
55316;SDS011;41178;48.956;8.130;2022-10-12T06:16:33;7.57;;;3.87;;
55316;SDS011;41178;48.956;8.130;2022-10-12T06:18:35;6.70;;;3.53;;
55316;SDS011;41178;48.956;8.130;2022-10-12T06:20:36;10.30;;;4.10;;
55316;SDS011;41178;48.956;8.130;2022-10-12T06:22:38;6.73;;;3.50;;
55316;SDS011;41178;48.956;8.130;2022-10-12T06:24:40;7.60;;;3.73;;
55316;SDS011;41178;48.956;8.130;2022-10-12T06:26:42;17.80;;;4.40;;
55316;SDS011;41178;48.956;8.130;2022-10-12T06:28:43;10.57;;;4.13;;
55316;SDS011;41178;48.956;8.130;2022-10-12T06:30:45;5.80;;;3.67;;
55316;SDS011;41178;48.956;8.130;2022-10-12T06:32:52;9.73;;;3.47;;
55316;SDS011;41178;48.956;8.130;2022-10-12T06:34:54;11.23;;;4.17;;
55316;SDS011;41178;48.956;8.130;2022-10-12T06:36:55;8.70;;;3.53;;
55316;SDS011;41178;48.956;8.130;2022-10-12T06:39:02;10.63;;;4.00;;
55316;SDS011;41178;48.956;8.130;2022-10-12T06:41:03;11.57;;;3.97;;
55316;SDS011;41178;48.956;8.130;2022-10-12T06:43:05;8.43;;;4.00;;
55316;SDS011;41178;48.956;8.130;2022-10-12T06:45:07;8.53;;;3.97;;
55316;SDS011;41178;48.956;8.130;2022-10-12T06:47:09;10.63;;;4.40;;
55316;SDS011;41178;48.956;8.130;2022-10-12T06:49:10;7.47;;;3.70;;
55316;SDS011;41178;48.956;8.130;2022-10-12T06:51:12;6.13;;;3.80;;
55316;SDS011;41178;48.956;8.130;2022-10-12T06:53:14;8.40;;;3.57;;
55316;SDS011;41178;48.956;8.130;2022-10-12T06:55:15;8.47;;;4.07;;
55316;SDS011;41178;48.956;8.130;2022-10-12T06:57:17;9.63;;;4.27;;
55316;SDS011;41178;48.956;8.130;2022-10-12T06:59:18;5.63;;;3.80;;
55316;SDS011;41178;48.956;8.130;2022-10-12T07:01:20;6.93;;;4.07;;
55316;SDS011;41178;48.956;8.130;2022-10-12T07:03:22;8.43;;;4.07;;
55316;SDS011;41178;48.956;8.130;2022-10-12T07:05:23;9.50;;;3.70;;
55316;SDS011;41178;48.956;8.130;2022-10-12T07:07:25;11.10;;;4.30;;
55316;SDS011;41178;48.956;8.130;2022-10-12T07:09:30;11.83;;;4.10;;
55316;SDS011;41178;48.956;8.130;2022-10-12T07:11:31;8.73;;;4.07;;
55316;SDS011;41178;48.956;8.130;2022-10-12T07:13:33;10.17;;;5.23;;
55316;SDS011;41178;48.956;8.130;2022-10-12T07:15:35;11.10;;;4.10;;
55316;SDS011;41178;48.956;8.130;2022-10-12T07:17:37;10.60;;;4.10;;
55316;SDS011;41178;48.956;8.130;2022-10-12T07:19:39;8.60;;;4.33;;
55316;SDS011;41178;48.956;8.130;2022-10-12T07:21:41;10.70;;;4.73;;
55316;SDS011;41178;48.956;8.130;2022-10-12T07:23:42;8.67;;;4.17;;
55316;SDS011;41178;48.956;8.130;2022-10-12T07:25:47;9.60;;;4.43;;
55316;SDS011;41178;48.956;8.130;2022-10-12T07:27:50;10.53;;;4.47;;
55316;SDS011;41178;48.956;8.130;2022-10-12T07:29:51;10.73;;;4.27;;
55316;SDS011;41178;48.956;8.130;2022-10-12T07:31:53;9.70;;;4.27;;
55316;SDS011;41178;48.956;8.130;2022-10-12T07:33:54;6.93;;;4.20;;
55316;SDS011;41178;48.956;8.130;2022-10-12T07:35:56;12.97;;;4.50;;
55316;SDS011;41178;48.956;8.130;2022-10-12T07:38:14;9.50;;;4.27;;
55316;SDS011;41178;48.956;8.130;2022-10-12T07:40:16;8.03;;;4.10;;
55316;SDS011;41178;48.956;8.130;2022-10-12T07:42:17;9.93;;;3.90;;
55316;SDS011;41178;48.956;8.130;2022-10-12T07:44:20;10.87;;;4.60;;
55316;SDS011;41178;48.956;8.130;2022-10-12T07:46:22;11.27;;;5.27;;
55316;SDS011;41178;48.956;8.130;2022-10-12T07:48:25;18.40;;;5.80;;
55316;SDS011;41178;48.956;8.130;2022-10-12T07:50:27;13.67;;;5.93;;
55316;SDS011;41178;48.956;8.130;2022-10-12T07:52:28;15.30;;;5.67;;
55316;SDS011;41178;48.956;8.130;2022-10-12T07:54:32;20.73;;;7.83;;
55316;SDS011;41178;48.956;8.130;2022-10-12T07:56:34;23.33;;;7.23;;
55316;SDS011;41178;48.956;8.130;2022-10-12T07:58:36;17.60;;;6.90;;
55316;SDS011;41178;48.956;8.130;2022-10-12T08:00:37;20.67;;;7.23;;
55316;SDS011;41178;48.956;8.130;2022-10-12T08:02:39;21.63;;;7.57;;
55316;SDS011;41178;48.956;8.130;2022-10-12T08:04:41;21.37;;;7.47;;
55316;SDS011;41178;48.956;8.130;2022-10-12T08:06:42;20.33;;;7.30;;
55316;SDS011;41178;48.956;8.130;2022-10-12T08:08:44;23.93;;;8.70;;
55316;SDS011;41178;48.956;8.130;2022-10-12T08:10:46;20.50;;;7.07;;
55316;SDS011;41178;48.956;8.130;2022-10-12T08:12:47;20.50;;;8.10;;
55316;SDS011;41178;48.956;8.130;2022-10-12T08:14:52;19.30;;;8.43;;
55316;SDS011;41178;48.956;8.130;2022-10-12T08:16:54;26.10;;;9.43;;
55316;SDS011;41178;48.956;8.130;2022-10-12T08:18:55;17.17;;;7.73;;
55316;SDS011;41178;48.956;8.130;2022-10-12T08:20:57;61.83;;;14.80;;
55316;SDS011;41178;48.956;8.130;2022-10-12T08:22:58;20.73;;;8.10;;
55316;SDS011;41178;48.956;8.130;2022-10-12T08:25:00;22.23;;;8.43;;
55316;SDS011;41178;48.956;8.130;2022-10-12T08:27:01;18.17;;;7.37;;
55316;SDS011;41178;48.956;8.130;2022-10-12T08:29:03;21.63;;;8.03;;
55316;SDS011;41178;48.956;8.130;2022-10-12T08:31:07;18.73;;;8.20;;
55316;SDS011;41178;48.956;8.130;2022-10-12T08:33:12;21.50;;;7.77;;
55316;SDS011;41178;48.956;8.130;2022-10-12T08:35:14;21.57;;;7.50;;
55316;SDS011;41178;48.956;8.130;2022-10-12T08:37:16;23.80;;;8.83;;
55316;SDS011;41178;48.956;8.130;2022-10-12T08:39:17;23.50;;;8.80;;
55316;SDS011;41178;48.956;8.130;2022-10-12T08:47:45;20.67;;;9.40;;
55316;SDS011;41178;48.956;8.130;2022-10-12T08:49:51;22.83;;;9.70;;
55316;SDS011;41178;48.956;8.130;2022-10-12T08:51:54;21.70;;;9.17;;
55316;SDS011;41178;48.956;8.130;2022-10-12T08:54:04;24.33;;;10.03;;
55316;SDS011;41178;48.956;8.130;2022-10-12T08:56:08;21.63;;;9.13;;
55316;SDS011;41178;48.956;8.130;2022-10-12T08:58:12;21.83;;;9.57;;
55316;SDS011;41178;48.956;8.130;2022-10-12T09:00:16;20.23;;;9.20;;
55316;SDS011;41178;48.956;8.130;2022-10-12T09:04:55;26.10;;;8.63;;
55316;SDS011;41178;48.956;8.130;2022-10-12T09:12:04;21.70;;;8.37;;
55316;SDS011;41178;48.956;8.130;2022-10-12T09:14:21;21.50;;;8.83;;
55316;SDS011;41178;48.956;8.130;2022-10-12T09:16:31;21.33;;;8.57;;
55316;SDS011;41178;48.956;8.130;2022-10-12T09:18:38;19.20;;;8.70;;
55316;SDS011;41178;48.956;8.130;2022-10-12T09:20:49;19.97;;;7.97;;
55316;SDS011;41178;48.956;8.130;2022-10-12T09:22:55;18.60;;;8.03;;
55316;SDS011;41178;48.956;8.130;2022-10-12T09:25:02;14.53;;;7.20;;
55316;SDS011;41178;48.956;8.130;2022-10-12T09:27:12;20.10;;;9.20;;
55316;SDS011;41178;48.956;8.130;2022-10-12T09:29:23;22.87;;;8.93;;
55316;SDS011;41178;48.956;8.130;2022-10-12T09:33:57;18.13;;;8.93;;
55316;SDS011;41178;48.956;8.130;2022-10-12T09:36:00;18.03;;;8.60;;
55316;SDS011;41178;48.956;8.130;2022-10-12T09:38:02;20.17;;;8.57;;
55316;SDS011;41178;48.956;8.130;2022-10-12T09:40:04;16.57;;;9.07;;
55316;SDS011;41178;48.956;8.130;2022-10-12T09:42:08;19.97;;;9.50;;
55316;SDS011;41178;48.956;8.130;2022-10-12T09:44:13;20.57;;;9.17;;
55316;SDS011;41178;48.956;8.130;2022-10-12T09:46:22;18.53;;;8.73;;
55316;SDS011;41178;48.956;8.130;2022-10-12T09:48:31;19.17;;;9.30;;
55316;SDS011;41178;48.956;8.130;2022-10-12T09:50:38;18.93;;;8.50;;
55316;SDS011;41178;48.956;8.130;2022-10-12T09:52:42;14.73;;;8.30;;
55316;SDS011;41178;48.956;8.130;2022-10-12T09:54:45;16.83;;;8.13;;
55316;SDS011;41178;48.956;8.130;2022-10-12T09:56:51;18.67;;;8.07;;
55316;SDS011;41178;48.956;8.130;2022-10-12T09:58:56;22.27;;;9.03;;
55316;SDS011;41178;48.956;8.130;2022-10-12T10:01:19;18.93;;;9.10;;
55316;SDS011;41178;48.956;8.130;2022-10-12T10:03:32;20.70;;;8.80;;
55316;SDS011;41178;48.956;8.130;2022-10-12T10:05:35;19.77;;;9.03;;
55316;SDS011;41178;48.956;8.130;2022-10-12T10:07:38;18.27;;;9.03;;
55316;SDS011;41178;48.956;8.130;2022-10-12T10:09:40;15.70;;;8.23;;
55316;SDS011;41178;48.956;8.130;2022-10-12T10:11:41;20.87;;;8.87;;
55316;SDS011;41178;48.956;8.130;2022-10-12T10:13:47;16.00;;;8.87;;
55316;SDS011;41178;48.956;8.130;2022-10-12T10:15:52;18.07;;;7.87;;
55316;SDS011;41178;48.956;8.130;2022-10-12T10:18:26;14.90;;;7.60;;
55316;SDS011;41178;48.956;8.130;2022-10-12T10:20:48;16.67;;;8.30;;
55316;SDS011;41178;48.956;8.130;2022-10-12T10:22:53;16.17;;;7.90;;
55316;SDS011;41178;48.956;8.130;2022-10-12T10:24:56;14.80;;;9.40;;
55316;SDS011;41178;48.956;8.130;2022-10-12T10:27:02;14.97;;;8.27;;
55316;SDS011;41178;48.956;8.130;2022-10-12T10:31:23;17.70;;;9.13;;
55316;SDS011;41178;48.956;8.130;2022-10-12T10:33:29;16.93;;;9.43;;
55316;SDS011;41178;48.956;8.130;2022-10-12T10:35:32;19.67;;;8.60;;
55316;SDS011;41178;48.956;8.130;2022-10-12T10:37:34;16.47;;;9.37;;
55316;SDS011;41178;48.956;8.130;2022-10-12T10:39:37;12.33;;;8.60;;
55316;SDS011;41178;48.956;8.130;2022-10-12T10:41:51;15.63;;;9.10;;
55316;SDS011;41178;48.956;8.130;2022-10-12T10:43:56;17.77;;;10.07;;
55316;SDS011;41178;48.956;8.130;2022-10-12T10:45:58;18.17;;;8.97;;
55316;SDS011;41178;48.956;8.130;2022-10-12T10:48:12;16.40;;;10.37;;
55316;SDS011;41178;48.956;8.130;2022-10-12T10:50:24;18.80;;;10.07;;
55316;SDS011;41178;48.956;8.130;2022-10-12T10:52:32;17.00;;;11.00;;
55316;SDS011;41178;48.956;8.130;2022-10-12T10:54:35;15.97;;;10.40;;
55316;SDS011;41178;48.956;8.130;2022-10-12T10:56:38;16.97;;;10.53;;
55316;SDS011;41178;48.956;8.130;2022-10-12T10:58:51;16.20;;;10.63;;
55316;SDS011;41178;48.956;8.130;2022-10-12T11:03:33;19.30;;;10.80;;
55316;SDS011;41178;48.956;8.130;2022-10-12T11:05:53;16.30;;;11.40;;
55316;SDS011;41178;48.956;8.130;2022-10-12T11:08:01;19.87;;;12.30;;
55316;SDS011;41178;48.956;8.130;2022-10-12T11:10:55;19.03;;;11.70;;
55316;SDS011;41178;48.956;8.130;2022-10-12T11:13:40;18.00;;;11.73;;
55316;SDS011;41178;48.956;8.130;2022-10-12T11:15:27;21.63;;;11.87;;
55316;SDS011;41178;48.956;8.130;2022-10-12T11:17:37;19.30;;;11.87;;
55316;SDS011;41178;48.956;8.130;2022-10-12T11:19:48;18.57;;;10.63;;
55316;SDS011;41178;48.956;8.130;2022-10-12T11:21:57;22.50;;;10.83;;
55316;SDS011;41178;48.956;8.130;2022-10-12T11:26:24;18.50;;;12.07;;
55316;SDS011;41178;48.956;8.130;2022-10-12T11:28:30;20.33;;;12.70;;
55316;SDS011;41178;48.956;8.130;2022-10-12T11:30:43;21.27;;;12.77;;
55316;SDS011;41178;48.956;8.130;2022-10-12T11:32:59;17.33;;;11.80;;
55316;SDS011;41178;48.956;8.130;2022-10-12T11:35:04;17.13;;;12.13;;
55316;SDS011;41178;48.956;8.130;2022-10-12T11:37:08;19.33;;;11.60;;
55316;SDS011;41178;48.956;8.130;2022-10-12T11:41:44;20.43;;;12.97;;
55316;SDS011;41178;48.956;8.130;2022-10-12T11:44:23;21.97;;;14.03;;
55316;SDS011;41178;48.956;8.130;2022-10-12T11:46:44;19.03;;;13.77;;
55316;SDS011;41178;48.956;8.130;2022-10-12T11:48:51;21.07;;;14.70;;
55316;SDS011;41178;48.956;8.130;2022-10-12T11:50:57;22.10;;;15.00;;
55316;SDS011;41178;48.956;8.130;2022-10-12T11:53:05;20.63;;;14.20;;
55316;SDS011;41178;48.956;8.130;2022-10-12T11:55:20;19.47;;;14.47;;
55316;SDS011;41178;48.956;8.130;2022-10-12T11:58:05;22.97;;;14.30;;
55316;SDS011;41178;48.956;8.130;2022-10-12T12:00:17;21.30;;;13.90;;
55316;SDS011;41178;48.956;8.130;2022-10-12T12:02:30;21.33;;;14.77;;
55316;SDS011;41178;48.956;8.130;2022-10-12T12:04:41;22.57;;;15.13;;
55316;SDS011;41178;48.956;8.130;2022-10-12T12:06:50;23.30;;;15.13;;
55316;SDS011;41178;48.956;8.130;2022-10-12T12:11:17;22.57;;;16.33;;
55316;SDS011;41178;48.956;8.130;2022-10-12T12:13:23;20.53;;;15.73;;
55316;SDS011;41178;48.956;8.130;2022-10-12T12:15:27;26.13;;;16.83;;
55316;SDS011;41178;48.956;8.130;2022-10-12T12:17:29;20.93;;;16.13;;
55316;SDS011;41178;48.956;8.130;2022-10-12T12:19:39;20.20;;;15.57;;
55316;SDS011;41178;48.956;8.130;2022-10-12T12:24:18;21.73;;;15.23;;
55316;SDS011;41178;48.956;8.130;2022-10-12T12:26:26;25.60;;;15.63;;
55316;SDS011;41178;48.956;8.130;2022-10-12T12:28:30;21.60;;;14.73;;
55316;SDS011;41178;48.956;8.130;2022-10-12T12:30:34;23.30;;;15.27;;
55316;SDS011;41178;48.956;8.130;2022-10-12T12:32:43;22.70;;;14.10;;
55316;SDS011;41178;48.956;8.130;2022-10-12T12:34:54;19.87;;;14.53;;
55316;SDS011;41178;48.956;8.130;2022-10-12T12:37:08;19.67;;;14.10;;
55316;SDS011;41178;48.956;8.130;2022-10-12T12:44:02;22.10;;;13.33;;
55316;SDS011;41178;48.956;8.130;2022-10-12T12:46:05;21.33;;;14.50;;
55316;SDS011;41178;48.956;8.130;2022-10-12T12:48:12;20.07;;;13.80;;
55316;SDS011;41178;48.956;8.130;2022-10-12T12:50:34;20.57;;;14.27;;
55316;SDS011;41178;48.956;8.130;2022-10-12T12:52:37;19.97;;;13.67;;
55316;SDS011;41178;48.956;8.130;2022-10-12T12:54:42;21.10;;;14.60;;
55316;SDS011;41178;48.956;8.130;2022-10-12T13:17:21;22.03;;;13.73;;
55316;SDS011;41178;48.956;8.130;2022-10-12T13:19:33;19.27;;;13.07;;
55316;SDS011;41178;48.956;8.130;2022-10-12T13:21:40;23.27;;;13.00;;
55316;SDS011;41178;48.956;8.130;2022-10-12T13:23:48;20.27;;;12.97;;
55316;SDS011;41178;48.956;8.130;2022-10-12T13:25:55;17.27;;;12.23;;
55316;SDS011;41178;48.956;8.130;2022-10-12T13:28:02;18.50;;;12.97;;
55316;SDS011;41178;48.956;8.130;2022-10-12T13:32:55;20.17;;;13.20;;
55316;SDS011;41178;48.956;8.130;2022-10-12T13:34:42;23.80;;;12.57;;
55316;SDS011;41178;48.956;8.130;2022-10-12T13:36:57;21.37;;;12.00;;
55316;SDS011;41178;48.956;8.130;2022-10-12T13:39:20;20.87;;;12.03;;
55316;SDS011;41178;48.956;8.130;2022-10-12T13:41:22;19.37;;;12.27;;
55316;SDS011;41178;48.956;8.130;2022-10-12T13:43:30;18.80;;;12.40;;
55316;SDS011;41178;48.956;8.130;2022-10-12T13:45:42;19.17;;;12.60;;
55316;SDS011;41178;48.956;8.130;2022-10-12T13:47:45;21.57;;;13.47;;